sensor_id;sensor_type;location;lat;lon;timestamp;P1;durP1;ratioP1;P2;durP2;ratioP2
74677;SDS011;67324;56.326;43.982;2023-05-21T00:00:19;7.90;;;6.82;;
74677;SDS011;67324;56.326;43.982;2023-05-21T00:02:45;8.40;;;7.05;;
74677;SDS011;67324;56.326;43.982;2023-05-21T00:05:12;8.30;;;7.07;;
74677;SDS011;67324;56.326;43.982;2023-05-21T00:07:39;8.82;;;7.00;;
74677;SDS011;67324;56.326;43.982;2023-05-21T00:10:05;8.25;;;6.82;;
74677;SDS011;67324;56.326;43.982;2023-05-21T00:12:32;9.60;;;6.97;;
74677;SDS011;67324;56.326;43.982;2023-05-21T00:14:58;9.80;;;7.70;;
74677;SDS011;67324;56.326;43.982;2023-05-21T00:17:26;8.07;;;6.88;;
74677;SDS011;67324;56.326;43.982;2023-05-21T00:19:53;10.32;;;7.32;;
74677;SDS011;67324;56.326;43.982;2023-05-21T00:22:21;9.32;;;7.00;;
74677;SDS011;67324;56.326;43.982;2023-05-21T00:24:47;9.02;;;7.30;;
74677;SDS011;67324;56.326;43.982;2023-05-21T00:27:13;9.55;;;7.30;;
74677;SDS011;67324;56.326;43.982;2023-05-21T00:29:39;7.82;;;6.90;;
74677;SDS011;67324;56.326;43.982;2023-05-21T00:32:05;9.52;;;7.57;;
74677;SDS011;67324;56.326;43.982;2023-05-21T00:34:31;8.98;;;6.75;;
74677;SDS011;67324;56.326;43.982;2023-05-21T00:36:57;9.05;;;6.97;;
74677;SDS011;67324;56.326;43.982;2023-05-21T00:39:24;8.20;;;6.65;;
74677;SDS011;67324;56.326;43.982;2023-05-21T00:41:50;8.55;;;6.95;;
74677;SDS011;67324;56.326;43.982;2023-05-21T00:44:16;8.68;;;6.90;;
74677;SDS011;67324;56.326;43.982;2023-05-21T00:46:43;7.70;;;6.88;;
74677;SDS011;67324;56.326;43.982;2023-05-21T00:49:10;8.30;;;6.70;;
74677;SDS011;67324;56.326;43.982;2023-05-21T00:51:36;9.48;;;7.15;;
74677;SDS011;67324;56.326;43.982;2023-05-21T00:54:02;8.05;;;7.03;;
74677;SDS011;67324;56.326;43.982;2023-05-21T00:56:47;8.40;;;7.43;;
74677;SDS011;67324;56.326;43.982;2023-05-21T00:59:14;8.98;;;7.07;;
74677;SDS011;67324;56.326;43.982;2023-05-21T01:01:44;9.20;;;7.30;;
74677;SDS011;67324;56.326;43.982;2023-05-21T01:04:10;8.25;;;6.72;;
74677;SDS011;67324;56.326;43.982;2023-05-21T01:06:37;8.15;;;6.43;;
74677;SDS011;67324;56.326;43.982;2023-05-21T01:09:03;8.68;;;7.45;;
74677;SDS011;67324;56.326;43.982;2023-05-21T01:14:04;8.10;;;6.90;;
74677;SDS011;67324;56.326;43.982;2023-05-21T01:16:34;8.90;;;6.60;;
74677;SDS011;67324;56.326;43.982;2023-05-21T01:19:01;8.00;;;6.85;;
74677;SDS011;67324;56.326;43.982;2023-05-21T01:21:29;9.00;;;7.10;;
74677;SDS011;67324;56.326;43.982;2023-05-21T01:23:59;8.55;;;6.80;;
74677;SDS011;67324;56.326;43.982;2023-05-21T01:26:26;9.70;;;7.20;;
74677;SDS011;67324;56.326;43.982;2023-05-21T01:28:53;9.23;;;7.10;;
74677;SDS011;67324;56.326;43.982;2023-05-21T01:31:25;8.20;;;6.72;;
74677;SDS011;67324;56.326;43.982;2023-05-21T01:33:56;7.80;;;6.78;;
74677;SDS011;67324;56.326;43.982;2023-05-21T01:36:28;8.68;;;6.75;;
74677;SDS011;67324;56.326;43.982;2023-05-21T01:38:59;8.35;;;6.60;;
74677;SDS011;67324;56.326;43.982;2023-05-21T01:41:33;8.90;;;7.40;;
74677;SDS011;67324;56.326;43.982;2023-05-21T01:44:21;8.15;;;6.55;;
74677;SDS011;67324;56.326;43.982;2023-05-21T01:46:49;7.97;;;6.63;;
74677;SDS011;67324;56.326;43.982;2023-05-21T01:49:18;8.25;;;6.78;;
74677;SDS011;67324;56.326;43.982;2023-05-21T01:51:46;8.82;;;7.20;;
74677;SDS011;67324;56.326;43.982;2023-05-21T01:54:13;7.78;;;6.93;;
74677;SDS011;67324;56.326;43.982;2023-05-21T01:56:38;8.60;;;7.05;;
74677;SDS011;67324;56.326;43.982;2023-05-21T01:59:04;9.13;;;7.18;;
74677;SDS011;67324;56.326;43.982;2023-05-21T02:01:30;9.43;;;7.18;;
74677;SDS011;67324;56.326;43.982;2023-05-21T02:03:56;8.27;;;6.85;;
74677;SDS011;67324;56.326;43.982;2023-05-21T02:06:22;8.70;;;7.22;;
74677;SDS011;67324;56.326;43.982;2023-05-21T02:08:48;8.10;;;6.60;;
74677;SDS011;67324;56.326;43.982;2023-05-21T02:11:15;8.43;;;6.97;;
74677;SDS011;67324;56.326;43.982;2023-05-21T02:13:41;7.97;;;6.75;;
74677;SDS011;67324;56.326;43.982;2023-05-21T02:16:08;8.90;;;6.80;;
74677;SDS011;67324;56.326;43.982;2023-05-21T02:18:40;7.18;;;6.47;;
74677;SDS011;67324;56.326;43.982;2023-05-21T02:21:08;7.57;;;6.03;;
74677;SDS011;67324;56.326;43.982;2023-05-21T02:23:37;9.63;;;6.78;;
74677;SDS011;67324;56.326;43.982;2023-05-21T02:26:03;8.30;;;6.75;;
74677;SDS011;67324;56.326;43.982;2023-05-21T02:28:30;8.68;;;6.93;;
74677;SDS011;67324;56.326;43.982;2023-05-21T02:30:57;8.65;;;7.32;;
74677;SDS011;67324;56.326;43.982;2023-05-21T02:33:24;7.80;;;6.60;;
74677;SDS011;67324;56.326;43.982;2023-05-21T02:35:50;7.63;;;6.45;;
74677;SDS011;67324;56.326;43.982;2023-05-21T02:38:17;9.13;;;6.95;;
74677;SDS011;67324;56.326;43.982;2023-05-21T02:40:45;8.13;;;6.70;;
74677;SDS011;67324;56.326;43.982;2023-05-21T02:43:29;7.38;;;6.05;;
74677;SDS011;67324;56.326;43.982;2023-05-21T02:45:55;8.40;;;6.90;;
74677;SDS011;67324;56.326;43.982;2023-05-21T02:48:21;8.15;;;6.80;;
74677;SDS011;67324;56.326;43.982;2023-05-21T02:50:47;7.28;;;6.10;;
74677;SDS011;67324;56.326;43.982;2023-05-21T02:53:13;8.15;;;6.88;;
74677;SDS011;67324;56.326;43.982;2023-05-21T02:55:39;8.20;;;6.35;;
74677;SDS011;67324;56.326;43.982;2023-05-21T02:58:06;8.50;;;6.75;;
74677;SDS011;67324;56.326;43.982;2023-05-21T03:00:32;7.57;;;6.53;;
74677;SDS011;67324;56.326;43.982;2023-05-21T03:02:59;8.43;;;6.78;;
74677;SDS011;67324;56.326;43.982;2023-05-21T03:05:24;9.07;;;7.07;;
74677;SDS011;67324;56.326;43.982;2023-05-21T03:07:50;8.10;;;6.75;;
74677;SDS011;67324;56.326;43.982;2023-05-21T03:10:17;7.82;;;6.75;;
74677;SDS011;67324;56.326;43.982;2023-05-21T03:12:43;7.72;;;6.65;;
74677;SDS011;67324;56.326;43.982;2023-05-21T03:15:10;8.07;;;6.32;;
74677;SDS011;67324;56.326;43.982;2023-05-21T03:17:39;7.40;;;6.65;;
74677;SDS011;67324;56.326;43.982;2023-05-21T03:20:09;8.18;;;6.65;;
74677;SDS011;67324;56.326;43.982;2023-05-21T03:22:42;7.93;;;6.30;;
74677;SDS011;67324;56.326;43.982;2023-05-21T03:25:09;8.02;;;6.82;;
74677;SDS011;67324;56.326;43.982;2023-05-21T03:27:36;7.57;;;6.38;;
74677;SDS011;67324;56.326;43.982;2023-05-21T03:30:06;7.68;;;6.40;;
74677;SDS011;67324;56.326;43.982;2023-05-21T03:32:41;10.18;;;7.03;;
74677;SDS011;67324;56.326;43.982;2023-05-21T03:35:09;7.68;;;6.10;;
74677;SDS011;67324;56.326;43.982;2023-05-21T03:37:35;7.40;;;6.50;;
74677;SDS011;67324;56.326;43.982;2023-05-21T03:40:01;7.22;;;6.45;;
74677;SDS011;67324;56.326;43.982;2023-05-21T03:42:29;8.18;;;6.65;;
74677;SDS011;67324;56.326;43.982;2023-05-21T03:44:55;8.52;;;6.60;;
74677;SDS011;67324;56.326;43.982;2023-05-21T03:47:55;8.35;;;6.72;;
74677;SDS011;67324;56.326;43.982;2023-05-21T03:50:21;8.27;;;6.93;;
74677;SDS011;67324;56.326;43.982;2023-05-21T03:52:47;7.43;;;6.28;;
74677;SDS011;67324;56.326;43.982;2023-05-21T03:55:13;7.70;;;6.20;;
74677;SDS011;67324;56.326;43.982;2023-05-21T03:57:40;7.82;;;6.70;;
74677;SDS011;67324;56.326;43.982;2023-05-21T04:00:06;8.52;;;6.90;;
74677;SDS011;67324;56.326;43.982;2023-05-21T04:02:42;8.00;;;6.63;;
74677;SDS011;67324;56.326;43.982;2023-05-21T04:05:26;8.05;;;6.35;;
74677;SDS011;67324;56.326;43.982;2023-05-21T04:08:11;9.35;;;6.90;;
74677;SDS011;67324;56.326;43.982;2023-05-21T04:10:36;7.80;;;6.60;;
74677;SDS011;67324;56.326;43.982;2023-05-21T04:13:02;7.82;;;6.18;;
74677;SDS011;67324;56.326;43.982;2023-05-21T04:15:47;7.93;;;6.47;;
74677;SDS011;67324;56.326;43.982;2023-05-21T04:18:14;7.50;;;6.65;;
74677;SDS011;67324;56.326;43.982;2023-05-21T04:20:45;8.50;;;6.75;;
74677;SDS011;67324;56.326;43.982;2023-05-21T04:23:30;7.70;;;6.05;;
74677;SDS011;67324;56.326;43.982;2023-05-21T04:25:57;7.07;;;6.38;;
74677;SDS011;67324;56.326;43.982;2023-05-21T04:28:23;7.40;;;6.40;;
74677;SDS011;67324;56.326;43.982;2023-05-21T04:30:49;9.30;;;6.90;;
74677;SDS011;67324;56.326;43.982;2023-05-21T04:33:15;8.40;;;6.60;;
74677;SDS011;67324;56.326;43.982;2023-05-21T04:36:00;7.40;;;6.50;;
74677;SDS011;67324;56.326;43.982;2023-05-21T04:38:28;7.38;;;6.20;;
74677;SDS011;67324;56.326;43.982;2023-05-21T04:40:55;7.60;;;6.50;;
74677;SDS011;67324;56.326;43.982;2023-05-21T04:43:41;7.15;;;6.43;;
74677;SDS011;67324;56.326;43.982;2023-05-21T04:46:26;7.72;;;6.50;;
74677;SDS011;67324;56.326;43.982;2023-05-21T04:48:53;8.23;;;6.70;;
74677;SDS011;67324;56.326;43.982;2023-05-21T04:51:23;7.68;;;6.20;;
74677;SDS011;67324;56.326;43.982;2023-05-21T04:53:49;8.48;;;6.63;;
74677;SDS011;67324;56.326;43.982;2023-05-21T04:56:15;7.00;;;6.18;;
74677;SDS011;67324;56.326;43.982;2023-05-21T04:58:46;8.95;;;6.80;;
74677;SDS011;67324;56.326;43.982;2023-05-21T05:01:13;7.88;;;6.63;;
74677;SDS011;67324;56.326;43.982;2023-05-21T05:03:58;7.63;;;6.65;;
74677;SDS011;67324;56.326;43.982;2023-05-21T05:06:25;7.80;;;6.50;;
74677;SDS011;67324;56.326;43.982;2023-05-21T05:08:51;7.93;;;6.35;;
74677;SDS011;67324;56.326;43.982;2023-05-21T05:11:17;7.03;;;5.88;;
74677;SDS011;67324;56.326;43.982;2023-05-21T05:13:43;6.63;;;5.90;;
74677;SDS011;67324;56.326;43.982;2023-05-21T05:16:09;7.25;;;6.07;;
74677;SDS011;67324;56.326;43.982;2023-05-21T05:18:38;7.97;;;6.63;;
74677;SDS011;67324;56.326;43.982;2023-05-21T05:21:04;7.90;;;6.65;;
74677;SDS011;67324;56.326;43.982;2023-05-21T05:23:30;6.90;;;6.15;;
74677;SDS011;67324;56.326;43.982;2023-05-21T05:25:58;7.15;;;6.22;;
74677;SDS011;67324;56.326;43.982;2023-05-21T05:28:24;7.40;;;5.95;;
74677;SDS011;67324;56.326;43.982;2023-05-21T05:30:50;7.55;;;6.43;;
74677;SDS011;67324;56.326;43.982;2023-05-21T05:33:21;7.55;;;6.40;;
74677;SDS011;67324;56.326;43.982;2023-05-21T05:35:48;7.72;;;6.45;;
74677;SDS011;67324;56.326;43.982;2023-05-21T05:38:33;6.93;;;5.85;;
74677;SDS011;67324;56.326;43.982;2023-05-21T05:41:00;8.88;;;6.60;;
74677;SDS011;67324;56.326;43.982;2023-05-21T05:43:26;7.38;;;6.45;;
74677;SDS011;67324;56.326;43.982;2023-05-21T05:45:54;7.60;;;6.30;;
74677;SDS011;67324;56.326;43.982;2023-05-21T05:48:38;7.47;;;6.07;;
74677;SDS011;67324;56.326;43.982;2023-05-21T05:51:04;7.30;;;6.47;;
74677;SDS011;67324;56.326;43.982;2023-05-21T05:53:30;6.95;;;6.05;;
74677;SDS011;67324;56.326;43.982;2023-05-21T05:55:56;7.20;;;6.07;;
74677;SDS011;67324;56.326;43.982;2023-05-21T05:58:24;7.60;;;6.22;;
74677;SDS011;67324;56.326;43.982;2023-05-21T06:01:05;7.97;;;6.55;;
74677;SDS011;67324;56.326;43.982;2023-05-21T06:03:32;7.50;;;6.38;;
74677;SDS011;67324;56.326;43.982;2023-05-21T06:08:43;7.65;;;6.28;;
74677;SDS011;67324;56.326;43.982;2023-05-21T06:11:11;7.10;;;6.03;;
74677;SDS011;67324;56.326;43.982;2023-05-21T06:13:37;6.93;;;6.22;;
74677;SDS011;67324;56.326;43.982;2023-05-21T06:16:04;8.05;;;6.38;;
74677;SDS011;67324;56.326;43.982;2023-05-21T06:18:31;7.63;;;6.32;;
74677;SDS011;67324;56.326;43.982;2023-05-21T06:20:58;8.30;;;6.60;;
74677;SDS011;67324;56.326;43.982;2023-05-21T06:23:24;6.97;;;6.18;;
74677;SDS011;67324;56.326;43.982;2023-05-21T06:25:51;6.75;;;6.05;;
74677;SDS011;67324;56.326;43.982;2023-05-21T06:28:18;7.25;;;6.45;;
74677;SDS011;67324;56.326;43.982;2023-05-21T06:30:44;7.95;;;6.43;;
74677;SDS011;67324;56.326;43.982;2023-05-21T06:33:10;6.82;;;5.80;;
74677;SDS011;67324;56.326;43.982;2023-05-21T06:35:36;7.60;;;5.88;;
74677;SDS011;67324;56.326;43.982;2023-05-21T06:38:22;6.35;;;5.75;;
74677;SDS011;67324;56.326;43.982;2023-05-21T06:40:49;7.40;;;6.30;;
74677;SDS011;67324;56.326;43.982;2023-05-21T06:43:27;7.50;;;6.20;;
74677;SDS011;67324;56.326;43.982;2023-05-21T06:46:12;7.63;;;6.13;;
74677;SDS011;67324;56.326;43.982;2023-05-21T06:48:39;7.68;;;6.55;;
74677;SDS011;67324;56.326;43.982;2023-05-21T06:51:05;7.60;;;6.00;;
74677;SDS011;67324;56.326;43.982;2023-05-21T06:53:31;6.78;;;5.50;;
74677;SDS011;67324;56.326;43.982;2023-05-21T06:55:57;7.57;;;6.35;;
74677;SDS011;67324;56.326;43.982;2023-05-21T06:58:53;8.45;;;6.50;;
74677;SDS011;67324;56.326;43.982;2023-05-21T07:01:20;6.88;;;6.13;;
74677;SDS011;67324;56.326;43.982;2023-05-21T07:03:49;7.30;;;5.93;;
74677;SDS011;67324;56.326;43.982;2023-05-21T07:06:15;6.60;;;5.90;;
74677;SDS011;67324;56.326;43.982;2023-05-21T07:08:41;7.32;;;6.10;;
74677;SDS011;67324;56.326;43.982;2023-05-21T07:11:08;7.50;;;6.07;;
74677;SDS011;67324;56.326;43.982;2023-05-21T07:13:35;6.38;;;5.72;;
74677;SDS011;67324;56.326;43.982;2023-05-21T07:16:01;6.75;;;6.05;;
74677;SDS011;67324;56.326;43.982;2023-05-21T07:18:28;7.85;;;6.53;;
74677;SDS011;67324;56.326;43.982;2023-05-21T07:20:54;6.78;;;5.97;;
74677;SDS011;67324;56.326;43.982;2023-05-21T07:23:22;7.43;;;6.20;;
74677;SDS011;67324;56.326;43.982;2023-05-21T07:25:48;6.90;;;5.82;;
74677;SDS011;67324;56.326;43.982;2023-05-21T07:28:14;7.90;;;6.05;;
74677;SDS011;67324;56.326;43.982;2023-05-21T07:30:40;7.22;;;5.80;;
74677;SDS011;67324;56.326;43.982;2023-05-21T07:33:10;6.68;;;5.82;;
74677;SDS011;67324;56.326;43.982;2023-05-21T07:35:38;7.28;;;6.05;;
74677;SDS011;67324;56.326;43.982;2023-05-21T07:38:04;7.30;;;6.35;;
74677;SDS011;67324;56.326;43.982;2023-05-21T07:40:30;7.88;;;6.30;;
74677;SDS011;67324;56.326;43.982;2023-05-21T07:42:57;6.90;;;6.03;;
74677;SDS011;67324;56.326;43.982;2023-05-21T07:48:07;7.28;;;6.30;;
74677;SDS011;67324;56.326;43.982;2023-05-21T07:50:37;7.68;;;6.13;;
74677;SDS011;67324;56.326;43.982;2023-05-21T07:53:03;7.63;;;6.40;;
74677;SDS011;67324;56.326;43.982;2023-05-21T07:55:29;7.57;;;6.50;;
74677;SDS011;67324;56.326;43.982;2023-05-21T07:57:56;7.47;;;6.13;;
74677;SDS011;67324;56.326;43.982;2023-05-21T08:00:28;8.02;;;6.63;;
74677;SDS011;67324;56.326;43.982;2023-05-21T08:02:56;6.85;;;6.05;;
74677;SDS011;67324;56.326;43.982;2023-05-21T08:05:24;6.90;;;6.00;;
74677;SDS011;67324;56.326;43.982;2023-05-21T08:07:50;7.70;;;6.32;;
74677;SDS011;67324;56.326;43.982;2023-05-21T08:10:17;7.30;;;6.45;;
74677;SDS011;67324;56.326;43.982;2023-05-21T08:12:43;7.45;;;6.00;;
74677;SDS011;67324;56.326;43.982;2023-05-21T08:15:09;7.40;;;6.28;;
74677;SDS011;67324;56.326;43.982;2023-05-21T08:17:41;6.95;;;5.85;;
74677;SDS011;67324;56.326;43.982;2023-05-21T08:20:07;7.50;;;6.22;;
74677;SDS011;67324;56.326;43.982;2023-05-21T08:22:35;6.85;;;5.70;;
74677;SDS011;67324;56.326;43.982;2023-05-21T08:25:20;7.20;;;6.00;;
74677;SDS011;67324;56.326;43.982;2023-05-21T08:27:46;6.97;;;5.85;;
74677;SDS011;67324;56.326;43.982;2023-05-21T08:30:12;7.07;;;5.72;;
74677;SDS011;67324;56.326;43.982;2023-05-21T08:32:39;6.55;;;5.80;;
74677;SDS011;67324;56.326;43.982;2023-05-21T08:35:05;6.80;;;5.72;;
74677;SDS011;67324;56.326;43.982;2023-05-21T08:37:43;7.53;;;6.18;;
74677;SDS011;67324;56.326;43.982;2023-05-21T08:42:44;7.60;;;6.43;;
74677;SDS011;67324;56.326;43.982;2023-05-21T08:45:19;7.03;;;5.90;;
74677;SDS011;67324;56.326;43.982;2023-05-21T08:47:46;6.70;;;5.47;;
74677;SDS011;67324;56.326;43.982;2023-05-21T08:50:15;6.53;;;5.82;;
74677;SDS011;67324;56.326;43.982;2023-05-21T08:52:45;6.25;;;5.65;;
74677;SDS011;67324;56.326;43.982;2023-05-21T08:55:11;7.20;;;6.13;;
74677;SDS011;67324;56.326;43.982;2023-05-21T08:57:42;7.57;;;5.82;;
74677;SDS011;67324;56.326;43.982;2023-05-21T09:00:10;6.97;;;6.00;;
74677;SDS011;67324;56.326;43.982;2023-05-21T09:02:37;6.88;;;5.88;;
74677;SDS011;67324;56.326;43.982;2023-05-21T09:05:06;6.75;;;5.60;;
74677;SDS011;67324;56.326;43.982;2023-05-21T09:08:20;6.93;;;5.50;;
74677;SDS011;67324;56.326;43.982;2023-05-21T09:10:49;7.53;;;6.03;;
74677;SDS011;67324;56.326;43.982;2023-05-21T09:13:34;7.63;;;6.28;;
74677;SDS011;67324;56.326;43.982;2023-05-21T09:16:06;7.70;;;6.25;;
74677;SDS011;67324;56.326;43.982;2023-05-21T09:18:35;6.88;;;5.72;;
74677;SDS011;67324;56.326;43.982;2023-05-21T09:21:27;6.78;;;6.00;;
74677;SDS011;67324;56.326;43.982;2023-05-21T09:24:06;6.85;;;5.85;;
74677;SDS011;67324;56.326;43.982;2023-05-21T09:26:35;7.57;;;6.38;;
74677;SDS011;67324;56.326;43.982;2023-05-21T09:29:04;6.88;;;5.40;;
74677;SDS011;67324;56.326;43.982;2023-05-21T09:31:30;7.57;;;5.85;;
74677;SDS011;67324;56.326;43.982;2023-05-21T09:33:59;7.15;;;5.95;;
74677;SDS011;67324;56.326;43.982;2023-05-21T09:36:25;6.97;;;6.10;;
74677;SDS011;67324;56.326;43.982;2023-05-21T09:38:53;7.38;;;6.20;;
74677;SDS011;67324;56.326;43.982;2023-05-21T09:41:19;6.53;;;5.80;;
74677;SDS011;67324;56.326;43.982;2023-05-21T09:44:00;7.18;;;5.85;;
74677;SDS011;67324;56.326;43.982;2023-05-21T09:46:36;7.57;;;6.10;;
74677;SDS011;67324;56.326;43.982;2023-05-21T09:49:05;6.80;;;5.80;;
74677;SDS011;67324;56.326;43.982;2023-05-21T09:51:31;7.03;;;6.10;;
74677;SDS011;67324;56.326;43.982;2023-05-21T09:53:57;7.68;;;6.05;;
74677;SDS011;67324;56.326;43.982;2023-05-21T09:56:41;6.95;;;6.10;;
74677;SDS011;67324;56.326;43.982;2023-05-21T09:59:07;6.68;;;5.97;;
74677;SDS011;67324;56.326;43.982;2023-05-21T10:01:33;6.82;;;6.13;;
74677;SDS011;67324;56.326;43.982;2023-05-21T10:04:01;8.30;;;6.35;;
74677;SDS011;67324;56.326;43.982;2023-05-21T10:06:29;6.57;;;5.55;;
74677;SDS011;67324;56.326;43.982;2023-05-21T10:08:59;8.27;;;6.38;;
74677;SDS011;67324;56.326;43.982;2023-05-21T10:11:31;7.95;;;6.57;;
74677;SDS011;67324;56.326;43.982;2023-05-21T10:14:08;10.63;;;8.32;;
74677;SDS011;67324;56.326;43.982;2023-05-21T10:16:39;8.77;;;7.47;;
74677;SDS011;67324;56.326;43.982;2023-05-21T10:19:05;10.32;;;8.02;;
74677;SDS011;67324;56.326;43.982;2023-05-21T10:21:35;8.10;;;7.07;;
74677;SDS011;67324;56.326;43.982;2023-05-21T10:24:02;9.38;;;7.35;;
74677;SDS011;67324;56.326;43.982;2023-05-21T10:26:29;9.73;;;7.95;;
74677;SDS011;67324;56.326;43.982;2023-05-21T10:28:56;8.57;;;7.10;;
74677;SDS011;67324;56.326;43.982;2023-05-21T10:31:25;8.85;;;7.30;;
74677;SDS011;67324;56.326;43.982;2023-05-21T10:34:10;8.68;;;7.10;;
74677;SDS011;67324;56.326;43.982;2023-05-21T10:36:38;8.40;;;6.68;;
74677;SDS011;67324;56.326;43.982;2023-05-21T10:39:04;10.30;;;7.65;;
74677;SDS011;67324;56.326;43.982;2023-05-21T10:41:33;9.13;;;7.13;;
74677;SDS011;67324;56.326;43.982;2023-05-21T10:46:57;9.52;;;7.30;;
74677;SDS011;67324;56.326;43.982;2023-05-21T10:50:02;9.88;;;7.82;;
74677;SDS011;67324;56.326;43.982;2023-05-21T10:55:32;12.90;;;9.52;;
74677;SDS011;67324;56.326;43.982;2023-05-21T10:58:19;10.73;;;8.38;;
74677;SDS011;67324;56.326;43.982;2023-05-21T11:01:02;10.25;;;8.13;;
74677;SDS011;67324;56.326;43.982;2023-05-21T11:03:30;9.25;;;7.32;;
74677;SDS011;67324;56.326;43.982;2023-05-21T11:05:57;10.45;;;8.55;;
74677;SDS011;67324;56.326;43.982;2023-05-21T11:08:28;9.80;;;8.20;;
74677;SDS011;67324;56.326;43.982;2023-05-21T11:16:53;10.18;;;8.18;;
74677;SDS011;67324;56.326;43.982;2023-05-21T11:19:19;10.38;;;8.70;;
74677;SDS011;67324;56.326;43.982;2023-05-21T11:21:51;10.40;;;8.35;;
74677;SDS011;67324;56.326;43.982;2023-05-21T11:29:17;10.20;;;8.43;;
74677;SDS011;67324;56.326;43.982;2023-05-21T11:31:45;9.95;;;8.18;;
74677;SDS011;67324;56.326;43.982;2023-05-21T11:34:13;9.65;;;8.57;;
74677;SDS011;67324;56.326;43.982;2023-05-21T11:39:46;9.23;;;8.20;;
74677;SDS011;67324;56.326;43.982;2023-05-21T11:42:21;11.25;;;8.90;;
74677;SDS011;67324;56.326;43.982;2023-05-21T11:44:54;13.00;;;9.65;;
74677;SDS011;67324;56.326;43.982;2023-05-21T11:47:21;11.30;;;8.95;;
74677;SDS011;67324;56.326;43.982;2023-05-21T11:50:10;12.07;;;9.57;;
74677;SDS011;67324;56.326;43.982;2023-05-21T11:52:39;11.68;;;9.57;;
74677;SDS011;67324;56.326;43.982;2023-05-21T11:55:08;10.93;;;9.05;;
74677;SDS011;67324;56.326;43.982;2023-05-21T11:57:35;11.50;;;9.43;;
74677;SDS011;67324;56.326;43.982;2023-05-21T12:00:02;11.40;;;9.73;;
74677;SDS011;67324;56.326;43.982;2023-05-21T12:02:46;12.32;;;9.57;;
74677;SDS011;67324;56.326;43.982;2023-05-21T12:05:14;12.02;;;9.45;;
74677;SDS011;67324;56.326;43.982;2023-05-21T12:07:40;11.75;;;9.30;;
74677;SDS011;67324;56.326;43.982;2023-05-21T12:10:07;12.30;;;9.75;;
74677;SDS011;67324;56.326;43.982;2023-05-21T12:12:33;11.00;;;9.07;;
74677;SDS011;67324;56.326;43.982;2023-05-21T12:14:59;11.73;;;9.65;;
74677;SDS011;67324;56.326;43.982;2023-05-21T12:17:31;11.68;;;9.20;;
74677;SDS011;67324;56.326;43.982;2023-05-21T12:19:57;12.50;;;9.98;;
74677;SDS011;67324;56.326;43.982;2023-05-21T12:22:24;13.30;;;10.48;;
74677;SDS011;67324;56.326;43.982;2023-05-21T12:24:52;12.88;;;10.57;;
74677;SDS011;67324;56.326;43.982;2023-05-21T12:27:19;13.38;;;10.15;;
74677;SDS011;67324;56.326;43.982;2023-05-21T12:29:47;13.82;;;11.00;;
74677;SDS011;67324;56.326;43.982;2023-05-21T12:32:16;13.65;;;10.88;;
74677;SDS011;67324;56.326;43.982;2023-05-21T12:34:46;13.00;;;10.10;;
74677;SDS011;67324;56.326;43.982;2023-05-21T12:37:16;13.85;;;10.38;;
74677;SDS011;67324;56.326;43.982;2023-05-21T12:39:47;12.73;;;10.45;;
74677;SDS011;67324;56.326;43.982;2023-05-21T12:42:14;14.32;;;10.75;;
74677;SDS011;67324;56.326;43.982;2023-05-21T12:44:46;12.55;;;10.40;;
74677;SDS011;67324;56.326;43.982;2023-05-21T12:47:12;11.30;;;9.77;;
74677;SDS011;67324;56.326;43.982;2023-05-21T12:49:42;13.63;;;10.52;;
74677;SDS011;67324;56.326;43.982;2023-05-21T12:52:10;12.00;;;9.75;;
74677;SDS011;67324;56.326;43.982;2023-05-21T12:54:38;13.07;;;10.48;;
74677;SDS011;67324;56.326;43.982;2023-05-21T13:02:19;12.52;;;10.15;;
74677;SDS011;67324;56.326;43.982;2023-05-21T13:04:46;13.07;;;9.93;;
74677;SDS011;67324;56.326;43.982;2023-05-21T13:07:14;13.43;;;10.82;;
74677;SDS011;67324;56.326;43.982;2023-05-21T13:09:41;11.80;;;9.80;;
74677;SDS011;67324;56.326;43.982;2023-05-21T13:12:07;13.20;;;10.82;;
74677;SDS011;67324;56.326;43.982;2023-05-21T13:14:33;13.60;;;10.98;;
74677;SDS011;67324;56.326;43.982;2023-05-21T13:16:59;13.32;;;10.80;;
74677;SDS011;67324;56.326;43.982;2023-05-21T13:19:25;13.93;;;11.15;;
74677;SDS011;67324;56.326;43.982;2023-05-21T13:21:51;12.75;;;10.30;;
74677;SDS011;67324;56.326;43.982;2023-05-21T13:24:17;13.65;;;11.05;;
74677;SDS011;67324;56.326;43.982;2023-05-21T13:26:43;14.05;;;10.45;;
74677;SDS011;67324;56.326;43.982;2023-05-21T13:29:09;13.52;;;11.07;;
74677;SDS011;67324;56.326;43.982;2023-05-21T13:31:42;14.02;;;10.82;;
74677;SDS011;67324;56.326;43.982;2023-05-21T13:34:09;14.43;;;11.10;;
74677;SDS011;67324;56.326;43.982;2023-05-21T13:36:36;15.18;;;11.48;;
74677;SDS011;67324;56.326;43.982;2023-05-21T13:39:03;13.93;;;11.32;;
74677;SDS011;67324;56.326;43.982;2023-05-21T13:41:29;16.10;;;12.10;;
74677;SDS011;67324;56.326;43.982;2023-05-21T13:43:55;13.65;;;11.52;;
74677;SDS011;67324;56.326;43.982;2023-05-21T13:46:22;16.02;;;12.63;;
74677;SDS011;67324;56.326;43.982;2023-05-21T13:48:48;15.48;;;12.70;;
74677;SDS011;67324;56.326;43.982;2023-05-21T13:51:14;17.45;;;13.60;;
74677;SDS011;67324;56.326;43.982;2023-05-21T13:53:40;17.27;;;13.05;;
74677;SDS011;67324;56.326;43.982;2023-05-21T13:56:06;14.93;;;12.00;;
74677;SDS011;67324;56.326;43.982;2023-05-21T13:58:32;15.00;;;12.13;;
74677;SDS011;67324;56.326;43.982;2023-05-21T14:00:59;15.93;;;12.20;;
74677;SDS011;67324;56.326;43.982;2023-05-21T14:03:26;14.48;;;12.50;;
74677;SDS011;67324;56.326;43.982;2023-05-21T14:05:53;15.68;;;12.50;;
74677;SDS011;67324;56.326;43.982;2023-05-21T14:08:38;15.40;;;12.68;;
74677;SDS011;67324;56.326;43.982;2023-05-21T14:11:03;19.30;;;14.15;;
74677;SDS011;67324;56.326;43.982;2023-05-21T14:13:29;16.02;;;12.65;;
74677;SDS011;67324;56.326;43.982;2023-05-21T14:15:56;15.77;;;12.40;;
74677;SDS011;67324;56.326;43.982;2023-05-21T14:18:22;15.02;;;12.43;;
74677;SDS011;67324;56.326;43.982;2023-05-21T14:20:48;16.02;;;12.90;;
74677;SDS011;67324;56.326;43.982;2023-05-21T14:23:14;15.40;;;12.35;;
74677;SDS011;67324;56.326;43.982;2023-05-21T14:25:40;14.98;;;12.27;;
74677;SDS011;67324;56.326;43.982;2023-05-21T14:28:07;14.70;;;12.13;;
74677;SDS011;67324;56.326;43.982;2023-05-21T14:30:32;15.82;;;12.60;;
74677;SDS011;67324;56.326;43.982;2023-05-21T14:32:58;16.08;;;12.63;;
74677;SDS011;67324;56.326;43.982;2023-05-21T14:35:25;16.55;;;12.63;;
74677;SDS011;67324;56.326;43.982;2023-05-21T14:37:51;15.90;;;12.63;;
74677;SDS011;67324;56.326;43.982;2023-05-21T14:40:18;16.70;;;13.18;;
74677;SDS011;67324;56.326;43.982;2023-05-21T14:42:45;15.73;;;12.60;;
74677;SDS011;67324;56.326;43.982;2023-05-21T14:45:12;14.80;;;11.75;;
74677;SDS011;67324;56.326;43.982;2023-05-21T14:47:38;14.88;;;11.93;;
74677;SDS011;67324;56.326;43.982;2023-05-21T14:50:04;15.85;;;12.00;;
74677;SDS011;67324;56.326;43.982;2023-05-21T14:52:31;15.60;;;11.70;;
74677;SDS011;67324;56.326;43.982;2023-05-21T14:54:57;13.25;;;10.57;;
74677;SDS011;67324;56.326;43.982;2023-05-21T14:57:22;13.30;;;10.93;;
74677;SDS011;67324;56.326;43.982;2023-05-21T14:59:48;15.18;;;11.43;;
74677;SDS011;67324;56.326;43.982;2023-05-21T15:02:14;14.82;;;11.45;;
74677;SDS011;67324;56.326;43.982;2023-05-21T15:04:40;14.75;;;11.73;;
74677;SDS011;67324;56.326;43.982;2023-05-21T15:07:06;14.80;;;11.90;;
74677;SDS011;67324;56.326;43.982;2023-05-21T15:09:32;15.18;;;11.85;;
74677;SDS011;67324;56.326;43.982;2023-05-21T15:11:58;13.95;;;11.77;;
74677;SDS011;67324;56.326;43.982;2023-05-21T15:14:23;14.20;;;11.55;;